sensor_id;sensor_type;location;lat;lon;timestamp;temperature;humidity
50548;DHT22;38013;48.810;8.818;2022-07-29T00:00:02;21.30;65.90
50548;DHT22;38013;48.810;8.818;2022-07-29T00:02:30;21.30;66.00
50548;DHT22;38013;48.810;8.818;2022-07-29T00:04:57;21.20;66.00
50548;DHT22;38013;48.810;8.818;2022-07-29T00:07:23;21.20;66.10
50548;DHT22;38013;48.810;8.818;2022-07-29T00:09:49;21.20;66.10
50548;DHT22;38013;48.810;8.818;2022-07-29T00:12:15;21.20;66.10
50548;DHT22;38013;48.810;8.818;2022-07-29T00:14:41;21.10;66.30
50548;DHT22;38013;48.810;8.818;2022-07-29T00:17:07;21.10;66.10
50548;DHT22;38013;48.810;8.818;2022-07-29T00:19:33;21.10;66.30
50548;DHT22;38013;48.810;8.818;2022-07-29T00:22:00;21.00;66.60
50548;DHT22;38013;48.810;8.818;2022-07-29T00:24:26;21.00;66.70
50548;DHT22;38013;48.810;8.818;2022-07-29T00:26:52;21.00;66.80
50548;DHT22;38013;48.810;8.818;2022-07-29T00:29:18;21.00;66.80
50548;DHT22;38013;48.810;8.818;2022-07-29T00:31:44;21.00;66.80
50548;DHT22;38013;48.810;8.818;2022-07-29T00:34:10;21.00;67.00
50548;DHT22;38013;48.810;8.818;2022-07-29T00:36:56;21.00;67.10
50548;DHT22;38013;48.810;8.818;2022-07-29T00:39:22;20.90;67.10
50548;DHT22;38013;48.810;8.818;2022-07-29T00:41:48;20.90;67.20
50548;DHT22;38013;48.810;8.818;2022-07-29T00:44:14;20.90;67.30
50548;DHT22;38013;48.810;8.818;2022-07-29T00:46:40;20.90;67.50
50548;DHT22;38013;48.810;8.818;2022-07-29T00:49:06;20.90;67.50
50548;DHT22;38013;48.810;8.818;2022-07-29T00:51:37;20.90;67.60
50548;DHT22;38013;48.810;8.818;2022-07-29T00:54:03;20.90;67.80
50548;DHT22;38013;48.810;8.818;2022-07-29T00:56:31;20.90;67.40
50548;DHT22;38013;48.810;8.818;2022-07-29T00:58:58;20.90;67.20
50548;DHT22;38013;48.810;8.818;2022-07-29T01:01:24;20.90;67.40
50548;DHT22;38013;48.810;8.818;2022-07-29T01:03:50;20.90;67.60
50548;DHT22;38013;48.810;8.818;2022-07-29T01:06:17;20.90;67.80
50548;DHT22;38013;48.810;8.818;2022-07-29T01:08:44;20.90;68.00
50548;DHT22;38013;48.810;8.818;2022-07-29T01:11:11;20.90;68.10
50548;DHT22;38013;48.810;8.818;2022-07-29T01:13:37;21.00;68.20
50548;DHT22;38013;48.810;8.818;2022-07-29T01:16:18;21.00;68.20
50548;DHT22;38013;48.810;8.818;2022-07-29T01:18:49;21.00;68.80
50548;DHT22;38013;48.810;8.818;2022-07-29T01:21:42;21.00;68.50
50548;DHT22;38013;48.810;8.818;2022-07-29T01:24:30;21.00;69.10
50548;DHT22;38013;48.810;8.818;2022-07-29T01:29:57;21.00;68.80
50548;DHT22;38013;48.810;8.818;2022-07-29T01:32:29;21.00;68.60
50548;DHT22;38013;48.810;8.818;2022-07-29T01:37:43;21.00;68.80
50548;DHT22;38013;48.810;8.818;2022-07-29T01:40:24;21.00;68.10
50548;DHT22;38013;48.810;8.818;2022-07-29T01:42:56;21.00;69.00
50548;DHT22;38013;48.810;8.818;2022-07-29T01:45:40;21.00;69.00
50548;DHT22;38013;48.810;8.818;2022-07-29T01:48:31;21.00;68.90
50548;DHT22;38013;48.810;8.818;2022-07-29T01:51:07;21.00;68.90
50548;DHT22;38013;48.810;8.818;2022-07-29T01:54:07;21.00;68.40
50548;DHT22;38013;48.810;8.818;2022-07-29T01:56:35;21.00;68.90
50548;DHT22;38013;48.810;8.818;2022-07-29T01:59:04;21.00;68.00
50548;DHT22;38013;48.810;8.818;2022-07-29T02:01:33;21.00;68.30
50548;DHT22;38013;48.810;8.818;2022-07-29T02:04:02;21.00;68.20
50548;DHT22;38013;48.810;8.818;2022-07-29T02:06:29;21.00;68.40
50548;DHT22;38013;48.810;8.818;2022-07-29T02:08:57;21.00;67.70
50548;DHT22;38013;48.810;8.818;2022-07-29T02:11:24;21.00;67.80
50548;DHT22;38013;48.810;8.818;2022-07-29T02:13:52;21.00;67.90
50548;DHT22;38013;48.810;8.818;2022-07-29T02:16:21;21.00;68.50
50548;DHT22;38013;48.810;8.818;2022-07-29T02:18:51;21.00;68.60
50548;DHT22;38013;48.810;8.818;2022-07-29T02:21:19;21.00;68.70
50548;DHT22;38013;48.810;8.818;2022-07-29T02:23:50;21.00;67.40
50548;DHT22;38013;48.810;8.818;2022-07-29T02:26:19;21.00;68.20
50548;DHT22;38013;48.810;8.818;2022-07-29T02:28:46;21.00;68.50
50548;DHT22;38013;48.810;8.818;2022-07-29T02:31:13;21.00;68.60
50548;DHT22;38013;48.810;8.818;2022-07-29T02:33:40;21.00;68.70
50548;DHT22;38013;48.810;8.818;2022-07-29T02:36:06;21.00;68.70
50548;DHT22;38013;48.810;8.818;2022-07-29T02:38:34;21.10;68.60
50548;DHT22;38013;48.810;8.818;2022-07-29T02:41:23;21.10;68.60
50548;DHT22;38013;48.810;8.818;2022-07-29T02:43:55;21.10;68.50
50548;DHT22;38013;48.810;8.818;2022-07-29T02:46:29;21.10;68.60
50548;DHT22;38013;48.810;8.818;2022-07-29T02:49:17;21.10;68.70
50548;DHT22;38013;48.810;8.818;2022-07-29T02:52:02;21.10;68.90
50548;DHT22;38013;48.810;8.818;2022-07-29T02:54:56;21.10;68.40
50548;DHT22;38013;48.810;8.818;2022-07-29T02:57:38;21.10;68.90
50548;DHT22;38013;48.810;8.818;2022-07-29T03:00:08;21.10;69.00
50548;DHT22;38013;48.810;8.818;2022-07-29T03:02:41;21.10;68.30
50548;DHT22;38013;48.810;8.818;2022-07-29T03:05:13;21.10;68.90
50548;DHT22;38013;48.810;8.818;2022-07-29T03:07:44;21.10;68.60
50548;DHT22;38013;48.810;8.818;2022-07-29T03:10:12;21.10;68.60
50548;DHT22;38013;48.810;8.818;2022-07-29T03:12:38;21.10;68.30
50548;DHT22;38013;48.810;8.818;2022-07-29T03:15:06;21.10;68.40
50548;DHT22;38013;48.810;8.818;2022-07-29T03:17:32;21.20;68.40
50548;DHT22;38013;48.810;8.818;2022-07-29T03:19:59;21.20;68.20
50548;DHT22;38013;48.810;8.818;2022-07-29T03:22:25;21.20;68.10
50548;DHT22;38013;48.810;8.818;2022-07-29T03:24:51;21.30;68.10
50548;DHT22;38013;48.810;8.818;2022-07-29T03:27:17;21.20;68.10
50548;DHT22;38013;48.810;8.818;2022-07-29T03:29:42;21.30;68.00
50548;DHT22;38013;48.810;8.818;2022-07-29T03:34:35;21.30;68.10
50548;DHT22;38013;48.810;8.818;2022-07-29T03:37:02;21.30;68.10
50548;DHT22;38013;48.810;8.818;2022-07-29T03:39:31;21.30;67.90
50548;DHT22;38013;48.810;8.818;2022-07-29T03:42:01;21.30;68.00
50548;DHT22;38013;48.810;8.818;2022-07-29T03:44:27;21.30;67.70
50548;DHT22;38013;48.810;8.818;2022-07-29T03:46:55;21.30;67.70
50548;DHT22;38013;48.810;8.818;2022-07-29T03:49:23;21.30;67.90
50548;DHT22;38013;48.810;8.818;2022-07-29T03:51:50;21.30;67.70
50548;DHT22;38013;48.810;8.818;2022-07-29T03:54:16;21.20;67.80
50548;DHT22;38013;48.810;8.818;2022-07-29T03:56:43;21.20;67.80
50548;DHT22;38013;48.810;8.818;2022-07-29T03:59:13;21.20;67.90
50548;DHT22;38013;48.810;8.818;2022-07-29T04:01:41;21.20;67.70
50548;DHT22;38013;48.810;8.818;2022-07-29T04:04:07;21.20;67.70
50548;DHT22;38013;48.810;8.818;2022-07-29T04:06:44;21.10;67.60
50548;DHT22;38013;48.810;8.818;2022-07-29T04:09:11;21.10;68.20
50548;DHT22;38013;48.810;8.818;2022-07-29T04:11:40;21.10;67.60
50548;DHT22;38013;48.810;8.818;2022-07-29T04:14:07;21.10;67.90
50548;DHT22;38013;48.810;8.818;2022-07-29T04:16:33;21.10;67.70
50548;DHT22;38013;48.810;8.818;2022-07-29T04:18:58;21.00;67.70
50548;DHT22;38013;48.810;8.818;2022-07-29T04:21:24;21.00;67.80
50548;DHT22;38013;48.810;8.818;2022-07-29T04:23:50;21.00;67.80
50548;DHT22;38013;48.810;8.818;2022-07-29T04:26:17;21.00;68.00
50548;DHT22;38013;48.810;8.818;2022-07-29T04:28:43;21.00;68.10
50548;DHT22;38013;48.810;8.818;2022-07-29T04:31:09;21.00;68.10
50548;DHT22;38013;48.810;8.818;2022-07-29T04:33:36;21.00;68.20
50548;DHT22;38013;48.810;8.818;2022-07-29T04:36:02;21.00;68.20
50548;DHT22;38013;48.810;8.818;2022-07-29T04:38:27;20.90;68.20
50548;DHT22;38013;48.810;8.818;2022-07-29T04:40:53;20.90;68.30
50548;DHT22;38013;48.810;8.818;2022-07-29T04:43:19;20.90;68.30
50548;DHT22;38013;48.810;8.818;2022-07-29T04:45:45;20.90;68.50
50548;DHT22;38013;48.810;8.818;2022-07-29T04:48:10;20.90;68.60
50548;DHT22;38013;48.810;8.818;2022-07-29T04:50:40;20.90;69.40
50548;DHT22;38013;48.810;8.818;2022-07-29T04:53:06;20.80;69.00
50548;DHT22;38013;48.810;8.818;2022-07-29T04:55:33;20.80;68.80
50548;DHT22;38013;48.810;8.818;2022-07-29T04:57:59;20.90;68.90
50548;DHT22;38013;48.810;8.818;2022-07-29T05:00:24;20.90;69.10
50548;DHT22;38013;48.810;8.818;2022-07-29T05:02:50;20.90;69.10
50548;DHT22;38013;48.810;8.818;2022-07-29T05:05:16;20.90;69.10
50548;DHT22;38013;48.810;8.818;2022-07-29T05:07:42;20.90;69.10
50548;DHT22;38013;48.810;8.818;2022-07-29T05:10:08;20.90;69.30
50548;DHT22;38013;48.810;8.818;2022-07-29T05:12:34;20.90;69.40
50548;DHT22;38013;48.810;8.818;2022-07-29T05:15:00;20.90;69.40
50548;DHT22;38013;48.810;8.818;2022-07-29T05:17:26;21.00;69.60
50548;DHT22;38013;48.810;8.818;2022-07-29T05:19:52;21.00;69.60
50548;DHT22;38013;48.810;8.818;2022-07-29T05:22:21;21.00;69.60
50548;DHT22;38013;48.810;8.818;2022-07-29T05:24:46;21.10;70.00
50548;DHT22;38013;48.810;8.818;2022-07-29T05:27:13;21.10;69.70
50548;DHT22;38013;48.810;8.818;2022-07-29T05:29:38;21.10;69.70
50548;DHT22;38013;48.810;8.818;2022-07-29T05:32:04;21.20;69.90
50548;DHT22;38013;48.810;8.818;2022-07-29T05:34:31;21.30;69.70
50548;DHT22;38013;48.810;8.818;2022-07-29T05:36:57;21.30;69.80
50548;DHT22;38013;48.810;8.818;2022-07-29T05:39:23;21.30;69.80
50548;DHT22;38013;48.810;8.818;2022-07-29T05:41:49;21.40;69.80
50548;DHT22;38013;48.810;8.818;2022-07-29T05:44:15;21.40;69.90
50548;DHT22;38013;48.810;8.818;2022-07-29T05:46:41;21.50;69.80
50548;DHT22;38013;48.810;8.818;2022-07-29T05:49:07;21.50;69.70
50548;DHT22;38013;48.810;8.818;2022-07-29T05:51:34;21.60;69.50
50548;DHT22;38013;48.810;8.818;2022-07-29T05:53:59;21.70;69.60
50548;DHT22;38013;48.810;8.818;2022-07-29T05:56:25;21.70;69.50
50548;DHT22;38013;48.810;8.818;2022-07-29T05:58:51;21.80;69.30
50548;DHT22;38013;48.810;8.818;2022-07-29T06:01:17;21.90;69.20
50548;DHT22;38013;48.810;8.818;2022-07-29T06:03:43;21.90;69.10
50548;DHT22;38013;48.810;8.818;2022-07-29T06:06:09;21.90;69.00
50548;DHT22;38013;48.810;8.818;2022-07-29T06:08:35;22.00;69.10
50548;DHT22;38013;48.810;8.818;2022-07-29T06:11:03;22.10;69.00
50548;DHT22;38013;48.810;8.818;2022-07-29T06:13:29;22.20;69.20
50548;DHT22;38013;48.810;8.818;2022-07-29T06:15:55;22.30;69.00
50548;DHT22;38013;48.810;8.818;2022-07-29T06:18:21;22.40;68.70
50548;DHT22;38013;48.810;8.818;2022-07-29T06:20:50;22.50;68.80
50548;DHT22;38013;48.810;8.818;2022-07-29T06:23:17;22.50;68.30
50548;DHT22;38013;48.810;8.818;2022-07-29T06:25:43;22.60;68.20
50548;DHT22;38013;48.810;8.818;2022-07-29T06:28:09;22.60;68.00
50548;DHT22;38013;48.810;8.818;2022-07-29T06:30:35;22.70;68.00
50548;DHT22;38013;48.810;8.818;2022-07-29T06:33:00;22.80;67.90
50548;DHT22;38013;48.810;8.818;2022-07-29T06:35:27;22.90;67.70
50548;DHT22;38013;48.810;8.818;2022-07-29T06:37:53;22.90;67.30
50548;DHT22;38013;48.810;8.818;2022-07-29T06:40:20;23.00;67.50
50548;DHT22;38013;48.810;8.818;2022-07-29T06:43:04;23.00;67.20
50548;DHT22;38013;48.810;8.818;2022-07-29T06:45:33;23.10;66.90
50548;DHT22;38013;48.810;8.818;2022-07-29T06:47:59;23.10;66.90
50548;DHT22;38013;48.810;8.818;2022-07-29T06:50:25;23.20;67.20
50548;DHT22;38013;48.810;8.818;2022-07-29T06:52:50;23.20;67.50
50548;DHT22;38013;48.810;8.818;2022-07-29T06:55:16;23.30;67.50
50548;DHT22;38013;48.810;8.818;2022-07-29T06:57:45;23.40;67.40
50548;DHT22;38013;48.810;8.818;2022-07-29T07:00:12;23.50;67.20
50548;DHT22;38013;48.810;8.818;2022-07-29T07:02:38;23.60;67.00
50548;DHT22;38013;48.810;8.818;2022-07-29T07:05:04;23.70;66.90
50548;DHT22;38013;48.810;8.818;2022-07-29T07:07:31;23.70;66.60
50548;DHT22;38013;48.810;8.818;2022-07-29T07:09:57;23.80;66.60
50548;DHT22;38013;48.810;8.818;2022-07-29T07:12:22;23.90;66.10
50548;DHT22;38013;48.810;8.818;2022-07-29T07:14:48;24.00;65.90
50548;DHT22;38013;48.810;8.818;2022-07-29T07:17:14;24.00;65.90
50548;DHT22;38013;48.810;8.818;2022-07-29T07:19:40;24.10;66.00
50548;DHT22;38013;48.810;8.818;2022-07-29T07:22:05;24.20;65.80
50548;DHT22;38013;48.810;8.818;2022-07-29T07:24:31;24.20;65.40
50548;DHT22;38013;48.810;8.818;2022-07-29T07:26:57;24.30;65.10
50548;DHT22;38013;48.810;8.818;2022-07-29T07:29:23;24.40;65.20
50548;DHT22;38013;48.810;8.818;2022-07-29T07:31:49;24.50;65.00
50548;DHT22;38013;48.810;8.818;2022-07-29T07:34:14;24.60;64.60
50548;DHT22;38013;48.810;8.818;2022-07-29T07:36:40;24.60;64.10
50548;DHT22;38013;48.810;8.818;2022-07-29T07:39:07;24.80;63.50
50548;DHT22;38013;48.810;8.818;2022-07-29T07:41:33;24.90;63.10
50548;DHT22;38013;48.810;8.818;2022-07-29T07:43:58;24.90;62.80
50548;DHT22;38013;48.810;8.818;2022-07-29T07:46:24;25.00;62.60
50548;DHT22;38013;48.810;8.818;2022-07-29T07:48:50;25.10;62.10
50548;DHT22;38013;48.810;8.818;2022-07-29T07:51:17;25.20;61.40
50548;DHT22;38013;48.810;8.818;2022-07-29T07:53:43;25.30;60.60
50548;DHT22;38013;48.810;8.818;2022-07-29T07:56:10;25.30;60.60
50548;DHT22;38013;48.810;8.818;2022-07-29T07:58:36;25.40;60.30
50548;DHT22;38013;48.810;8.818;2022-07-29T08:01:02;25.50;60.30
50548;DHT22;38013;48.810;8.818;2022-07-29T08:03:28;25.60;60.50
50548;DHT22;38013;48.810;8.818;2022-07-29T08:05:54;25.70;60.50
50548;DHT22;38013;48.810;8.818;2022-07-29T08:08:19;25.80;60.60
50548;DHT22;38013;48.810;8.818;2022-07-29T08:10:46;25.90;60.10
50548;DHT22;38013;48.810;8.818;2022-07-29T08:13:18;26.00;60.10
50548;DHT22;38013;48.810;8.818;2022-07-29T08:15:45;26.10;59.50
50548;DHT22;38013;48.810;8.818;2022-07-29T08:18:14;26.20;58.90
50548;DHT22;38013;48.810;8.818;2022-07-29T08:20:40;26.30;58.60
50548;DHT22;38013;48.810;8.818;2022-07-29T08:23:07;26.40;57.60
50548;DHT22;38013;48.810;8.818;2022-07-29T08:25:36;26.40;57.40
50548;DHT22;38013;48.810;8.818;2022-07-29T08:28:03;26.50;57.30
50548;DHT22;38013;48.810;8.818;2022-07-29T08:30:29;26.60;56.70
50548;DHT22;38013;48.810;8.818;2022-07-29T08:32:55;26.60;56.20
50548;DHT22;38013;48.810;8.818;2022-07-29T08:35:22;26.60;56.50
50548;DHT22;38013;48.810;8.818;2022-07-29T08:37:48;26.60;56.60
50548;DHT22;38013;48.810;8.818;2022-07-29T08:40:14;26.60;55.70
50548;DHT22;38013;48.810;8.818;2022-07-29T08:42:40;26.70;55.50
50548;DHT22;38013;48.810;8.818;2022-07-29T08:45:07;26.70;55.40
50548;DHT22;38013;48.810;8.818;2022-07-29T08:47:33;26.80;55.50
50548;DHT22;38013;48.810;8.818;2022-07-29T08:50:02;26.80;54.70
50548;DHT22;38013;48.810;8.818;2022-07-29T08:52:29;26.80;54.50
50548;DHT22;38013;48.810;8.818;2022-07-29T08:54:59;26.90;53.90
50548;DHT22;38013;48.810;8.818;2022-07-29T08:57:25;27.00;54.30
50548;DHT22;38013;48.810;8.818;2022-07-29T08:59:52;27.10;54.60
50548;DHT22;38013;48.810;8.818;2022-07-29T09:02:20;27.10;52.70
50548;DHT22;38013;48.810;8.818;2022-07-29T09:04:48;27.20;52.00
50548;DHT22;38013;48.810;8.818;2022-07-29T09:07:15;27.30;51.90
50548;DHT22;38013;48.810;8.818;2022-07-29T09:09:43;27.30;52.10
50548;DHT22;38013;48.810;8.818;2022-07-29T09:12:09;27.40;51.50
50548;DHT22;38013;48.810;8.818;2022-07-29T09:14:37;27.50;50.30
50548;DHT22;38013;48.810;8.818;2022-07-29T09:17:03;27.50;50.60
50548;DHT22;38013;48.810;8.818;2022-07-29T09:19:34;27.50;50.80
50548;DHT22;38013;48.810;8.818;2022-07-29T09:22:05;27.60;49.80
50548;DHT22;38013;48.810;8.818;2022-07-29T09:27:00;27.70;50.60
50548;DHT22;38013;48.810;8.818;2022-07-29T09:29:27;27.80;50.20
50548;DHT22;38013;48.810;8.818;2022-07-29T09:31:54;27.90;49.70
50548;DHT22;38013;48.810;8.818;2022-07-29T09:34:25;28.00;49.30
50548;DHT22;38013;48.810;8.818;2022-07-29T09:36:54;28.00;48.40
50548;DHT22;38013;48.810;8.818;2022-07-29T09:39:33;28.10;48.70
50548;DHT22;38013;48.810;8.818;2022-07-29T09:42:03;28.10;47.60
50548;DHT22;38013;48.810;8.818;2022-07-29T09:44:49;28.20;47.90
50548;DHT22;38013;48.810;8.818;2022-07-29T09:47:17;28.20;47.00
50548;DHT22;38013;48.810;8.818;2022-07-29T09:49:54;28.20;47.30
50548;DHT22;38013;48.810;8.818;2022-07-29T09:52:23;28.20;46.50
50548;DHT22;38013;48.810;8.818;2022-07-29T09:54:49;28.20;47.20
50548;DHT22;38013;48.810;8.818;2022-07-29T09:57:28;28.20;46.90
50548;DHT22;38013;48.810;8.818;2022-07-29T10:00:05;28.20;46.20
50548;DHT22;38013;48.810;8.818;2022-07-29T10:02:41;28.20;46.30
50548;DHT22;38013;48.810;8.818;2022-07-29T10:05:29;28.20;46.50
50548;DHT22;38013;48.810;8.818;2022-07-29T10:07:56;28.20;45.60
50548;DHT22;38013;48.810;8.818;2022-07-29T10:10:27;28.20;46.00
50548;DHT22;38013;48.810;8.818;2022-07-29T10:12:55;28.20;46.20
50548;DHT22;38013;48.810;8.818;2022-07-29T10:15:23;28.20;45.60
50548;DHT22;38013;48.810;8.818;2022-07-29T10:17:50;28.20;44.60
50548;DHT22;38013;48.810;8.818;2022-07-29T10:20:17;28.20;45.90
50548;DHT22;38013;48.810;8.818;2022-07-29T10:22:43;28.30;45.30
50548;DHT22;38013;48.810;8.818;2022-07-29T10:25:10;28.30;46.00
50548;DHT22;38013;48.810;8.818;2022-07-29T10:27:36;28.30;45.30
50548;DHT22;38013;48.810;8.818;2022-07-29T10:30:03;28.30;45.20
50548;DHT22;38013;48.810;8.818;2022-07-29T10:32:51;28.30;45.00
50548;DHT22;38013;48.810;8.818;2022-07-29T10:41:49;28.40;44.00
50548;DHT22;38013;48.810;8.818;2022-07-29T10:44:23;28.50;44.30
50548;DHT22;38013;48.810;8.818;2022-07-29T10:46:51;28.50;44.40
50548;DHT22;38013;48.810;8.818;2022-07-29T10:49:25;28.50;44.40
50548;DHT22;38013;48.810;8.818;2022-07-29T10:51:53;28.60;43.80
50548;DHT22;38013;48.810;8.818;2022-07-29T11:05:10;29.40;48.20
50548;DHT22;38013;48.810;8.818;2022-07-29T11:10:38;29.70;47.60
50548;DHT22;38013;48.810;8.818;2022-07-29T11:13:04;29.80;47.20
50548;DHT22;38013;48.810;8.818;2022-07-29T11:18:19;30.10;45.70
50548;DHT22;38013;48.810;8.818;2022-07-29T11:20:50;30.10;45.90
50548;DHT22;38013;48.810;8.818;2022-07-29T11:28:48;30.10;45.00
50548;DHT22;38013;48.810;8.818;2022-07-29T11:31:39;30.10;45.40
50548;DHT22;38013;48.810;8.818;2022-07-29T11:39:41;30.00;45.60
50548;DHT22;38013;48.810;8.818;2022-07-29T11:45:09;29.80;45.70
50548;DHT22;38013;48.810;8.818;2022-07-29T11:47:40;29.80;46.00
50548;DHT22;38013;48.810;8.818;2022-07-29T11:50:30;29.80;45.70
50548;DHT22;38013;48.810;8.818;2022-07-29T11:52:58;30.00;46.20
50548;DHT22;38013;48.810;8.818;2022-07-29T11:55:25;30.00;46.10
50548;DHT22;38013;48.810;8.818;2022-07-29T11:57:54;30.10;46.20
50548;DHT22;38013;48.810;8.818;2022-07-29T12:00:31;30.30;45.80
50548;DHT22;38013;48.810;8.818;2022-07-29T12:03:02;30.30;44.50
50548;DHT22;38013;48.810;8.818;2022-07-29T12:05:41;30.40;44.60
50548;DHT22;38013;48.810;8.818;2022-07-29T12:08:17;30.40;44.10
50548;DHT22;38013;48.810;8.818;2022-07-29T12:10:46;30.50;44.20
50548;DHT22;38013;48.810;8.818;2022-07-29T12:13:13;30.50;44.50
50548;DHT22;38013;48.810;8.818;2022-07-29T12:15:40;30.40;44.10
50548;DHT22;38013;48.810;8.818;2022-07-29T12:18:15;30.30;44.10
50548;DHT22;38013;48.810;8.818;2022-07-29T12:20:43;30.20;44.40
50548;DHT22;38013;48.810;8.818;2022-07-29T12:23:09;30.10;45.00
50548;DHT22;38013;48.810;8.818;2022-07-29T12:25:40;29.90;45.30
50548;DHT22;38013;48.810;8.818;2022-07-29T12:28:09;29.80;45.60
50548;DHT22;38013;48.810;8.818;2022-07-29T12:30:43;29.70;45.60
50548;DHT22;38013;48.810;8.818;2022-07-29T12:33:16;29.60;45.80
50548;DHT22;38013;48.810;8.818;2022-07-29T12:35:46;29.50;45.80
50548;DHT22;38013;48.810;8.818;2022-07-29T12:38:13;29.30;46.10
50548;DHT22;38013;48.810;8.818;2022-07-29T12:40:39;29.30;46.10
50548;DHT22;38013;48.810;8.818;2022-07-29T12:43:09;29.20;46.00
50548;DHT22;38013;48.810;8.818;2022-07-29T12:45:37;29.10;46.30
50548;DHT22;38013;48.810;8.818;2022-07-29T12:48:04;29.10;46.80
50548;DHT22;38013;48.810;8.818;2022-07-29T12:50:30;29.00;47.30
50548;DHT22;38013;48.810;8.818;2022-07-29T12:53:11;28.90;47.90
50548;DHT22;38013;48.810;8.818;2022-07-29T12:55:45;28.80;48.90
50548;DHT22;38013;48.810;8.818;2022-07-29T13:01:10;28.70;49.70
50548;DHT22;38013;48.810;8.818;2022-07-29T13:03:54;28.50;50.30
50548;DHT22;38013;48.810;8.818;2022-07-29T13:09:09;28.30;49.10
50548;DHT22;38013;48.810;8.818;2022-07-29T13:11:45;28.20;49.90
50548;DHT22;38013;48.810;8.818;2022-07-29T13:14:13;28.00;49.90
50548;DHT22;38013;48.810;8.818;2022-07-29T13:17:03;28.00;49.50
50548;DHT22;38013;48.810;8.818;2022-07-29T13:19:45;27.90;49.80
50548;DHT22;38013;48.810;8.818;2022-07-29T13:22:17;27.80;49.80
50548;DHT22;38013;48.810;8.818;2022-07-29T13:27:24;27.60;49.30
50548;DHT22;38013;48.810;8.818;2022-07-29T13:29:52;27.60;49.10
50548;DHT22;38013;48.810;8.818;2022-07-29T13:32:22;27.60;49.50
50548;DHT22;38013;48.810;8.818;2022-07-29T13:34:48;27.60;49.50
50548;DHT22;38013;48.810;8.818;2022-07-29T13:37:14;27.60;49.30
50548;DHT22;38013;48.810;8.818;2022-07-29T13:39:42;27.70;49.40
50548;DHT22;38013;48.810;8.818;2022-07-29T13:42:08;27.90;49.30
50548;DHT22;38013;48.810;8.818;2022-07-29T13:44:35;28.00;49.00
50548;DHT22;38013;48.810;8.818;2022-07-29T13:47:01;28.10;48.90
50548;DHT22;38013;48.810;8.818;2022-07-29T13:49:27;28.30;48.90
50548;DHT22;38013;48.810;8.818;2022-07-29T13:51:53;28.50;48.70
50548;DHT22;38013;48.810;8.818;2022-07-29T13:54:20;28.60;48.70
50548;DHT22;38013;48.810;8.818;2022-07-29T13:56:46;28.70;48.40
50548;DHT22;38013;48.810;8.818;2022-07-29T13:59:12;28.90;48.40
50548;DHT22;38013;48.810;8.818;2022-07-29T14:01:38;29.10;48.00
50548;DHT22;38013;48.810;8.818;2022-07-29T14:04:07;29.20;47.80
50548;DHT22;38013;48.810;8.818;2022-07-29T14:06:33;29.30;47.50
50548;DHT22;38013;48.810;8.818;2022-07-29T14:08:59;29.40;46.40
50548;DHT22;38013;48.810;8.818;2022-07-29T14:11:25;29.50;46.20
50548;DHT22;38013;48.810;8.818;2022-07-29T14:13:51;29.60;45.80
50548;DHT22;38013;48.810;8.818;2022-07-29T14:16:16;29.70;44.80
50548;DHT22;38013;48.810;8.818;2022-07-29T14:18:42;29.70;43.20
50548;DHT22;38013;48.810;8.818;2022-07-29T14:21:08;29.80;42.30
50548;DHT22;38013;48.810;8.818;2022-07-29T14:23:34;29.90;41.40
50548;DHT22;38013;48.810;8.818;2022-07-29T14:26:00;30.00;40.70
50548;DHT22;38013;48.810;8.818;2022-07-29T14:28:26;30.10;40.10
50548;DHT22;38013;48.810;8.818;2022-07-29T14:30:52;30.10;39.70
50548;DHT22;38013;48.810;8.818;2022-07-29T14:33:17;30.10;39.50
50548;DHT22;38013;48.810;8.818;2022-07-29T14:35:44;30.10;39.00
50548;DHT22;38013;48.810;8.818;2022-07-29T14:38:10;30.10;38.60
50548;DHT22;38013;48.810;8.818;2022-07-29T14:40:36;30.10;38.40
50548;DHT22;38013;48.810;8.818;2022-07-29T14:43:02;30.00;38.20
50548;DHT22;38013;48.810;8.818;2022-07-29T14:45:28;30.00;38.30
50548;DHT22;38013;48.810;8.818;2022-07-29T14:47:54;30.00;38.40
50548;DHT22;38013;48.810;8.818;2022-07-29T14:50:20;29.90;38.50
50548;DHT22;38013;48.810;8.818;2022-07-29T14:52:46;29.90;38.40
50548;DHT22;38013;48.810;8.818;2022-07-29T14:55:12;29.90;38.50
50548;DHT22;38013;48.810;8.818;2022-07-29T14:57:37;30.00;38.50
50548;DHT22;38013;48.810;8.818;2022-07-29T15:00:04;29.90;38.30
50548;DHT22;38013;48.810;8.818;2022-07-29T15:02:32;29.90;38.20
50548;DHT22;38013;48.810;8.818;2022-07-29T15:04:58;29.90;38.30
50548;DHT22;38013;48.810;8.818;2022-07-29T15:07:24;29.90;38.80
50548;DHT22;38013;48.810;8.818;2022-07-29T15:09:50;30.00;38.20
50548;DHT22;38013;48.810;8.818;2022-07-29T15:12:16;29.90;38.10
50548;DHT22;38013;48.810;8.818;2022-07-29T15:14:41;29.90;38.10
50548;DHT22;38013;48.810;8.818;2022-07-29T15:17:07;29.90;38.00
50548;DHT22;38013;48.810;8.818;2022-07-29T15:19:34;29.90;38.00
50548;DHT22;38013;48.810;8.818;2022-07-29T15:22:01;29.90;38.10
50548;DHT22;38013;48.810;8.818;2022-07-29T15:24:27;29.90;38.30
50548;DHT22;38013;48.810;8.818;2022-07-29T15:26:52;29.80;38.10
50548;DHT22;38013;48.810;8.818;2022-07-29T15:29:18;29.80;38.10
50548;DHT22;38013;48.810;8.818;2022-07-29T15:31:45;29.80;38.20
50548;DHT22;38013;48.810;8.818;2022-07-29T15:34:10;29.70;38.40
50548;DHT22;38013;48.810;8.818;2022-07-29T15:36:36;29.70;38.40
50548;DHT22;38013;48.810;8.818;2022-07-29T15:39:02;29.70;38.40
50548;DHT22;38013;48.810;8.818;2022-07-29T15:41:28;29.70;38.40
50548;DHT22;38013;48.810;8.818;2022-07-29T15:43:53;29.70;38.40
50548;DHT22;38013;48.810;8.818;2022-07-29T15:46:20;29.70;38.40
50548;DHT22;38013;48.810;8.818;2022-07-29T15:49:05;29.70;38.50
50548;DHT22;38013;48.810;8.818;2022-07-29T15:51:32;29.80;38.40
50548;DHT22;38013;48.810;8.818;2022-07-29T15:54:00;29.70;38.30
50548;DHT22;38013;48.810;8.818;2022-07-29T15:56:27;29.70;38.30
50548;DHT22;38013;48.810;8.818;2022-07-29T15:58:53;29.70;38.40
50548;DHT22;38013;48.810;8.818;2022-07-29T16:01:19;29.60;38.20
50548;DHT22;38013;48.810;8.818;2022-07-29T16:03:45;29.60;38.30
50548;DHT22;38013;48.810;8.818;2022-07-29T16:06:10;29.50;38.40
50548;DHT22;38013;48.810;8.818;2022-07-29T16:08:36;29.50;38.50
50548;DHT22;38013;48.810;8.818;2022-07-29T16:11:02;29.50;38.50
50548;DHT22;38013;48.810;8.818;2022-07-29T16:13:28;29.40;38.10
50548;DHT22;38013;48.810;8.818;2022-07-29T16:15:54;29.40;38.30
50548;DHT22;38013;48.810;8.818;2022-07-29T16:18:19;29.40;38.30
50548;DHT22;38013;48.810;8.818;2022-07-29T16:20:45;29.50;38.30
50548;DHT22;38013;48.810;8.818;2022-07-29T16:23:11;29.60;38.50
50548;DHT22;38013;48.810;8.818;2022-07-29T16:25:40;29.70;38.30
50548;DHT22;38013;48.810;8.818;2022-07-29T16:28:06;29.70;37.90
50548;DHT22;38013;48.810;8.818;2022-07-29T16:30:34;29.80;37.80
50548;DHT22;38013;48.810;8.818;2022-07-29T16:33:01;29.90;37.80